Time;durP1;ratioP1;P1;durP2;ratioP2;P2;SDS_P1;SDS_P2;PMS_P1;PMS_P2;Temp;Humidity;BMP_temperature;BMP_pressure;BME280_temperature;BME280_humidity;BME280_pressure;Samples;Min_cycle;Max_cycle;Signal;HPM_P1;HPM_P2
2022/08/10 00:00:20;;;;;;;3.80;2.05;;;;;;;17.36;100.00;100367.91;5172009;27;20442;-49
2022/08/10 00:02:47;;;;;;;2.78;2.05;;;;;;;17.34;100.00;100378.56;5172229;27;20485;-48
2022/08/10 00:05:13;;;;;;;3.33;2.65;;;;;;;17.18;100.00;100387.09;5171769;27;20053;-49
2022/08/10 00:07:40;;;;;;;5.93;3.40;;;;;;;17.07;100.00;100386.22;5172123;27;20046;-48
2022/08/10 00:10:07;;;;;;;4.18;3.40;;;;;;;17.19;100.00;100396.22;5171757;27;20047;-48
2022/08/10 00:12:33;;;;;;;4.45;2.22;;;;;;;17.22;100.00;100400.19;5174286;27;20079;-48
2022/08/10 00:15:00;;;;;;;9.20;2.75;;;;;;;17.01;100.00;100395.22;5175544;27;20042;-50
2022/08/10 00:17:26;;;;;;;6.22;2.70;;;;;;;17.27;100.00;100391.56;5175521;27;20054;-51
2022/08/10 00:19:53;;;;;;;2.97;2.60;;;;;;;17.24;100.00;100390.34;5175667;27;20049;-51
2022/08/10 00:22:19;;;;;;;5.10;2.67;;;;;;;17.26;100.00;100399.09;5175608;27;20053;-49
2022/08/10 00:24:45;;;;;;;2.65;2.45;;;;;;;17.20;100.00;100394.25;5175714;27;20050;-51
2022/08/10 00:27:11;;;;;;;5.97;3.00;;;;;;;17.09;100.00;100406.03;5175154;27;20527;-51
2022/08/10 00:29:38;;;;;;;3.97;2.45;;;;;;;17.04;100.00;100405.56;5175655;27;20545;-52
2022/08/10 00:32:05;;;;;;;2.78;2.58;;;;;;;17.05;100.00;100413.47;5175187;27;20505;-52
2022/08/10 00:34:32;;;;;;;3.78;2.63;;;;;;;17.05;100.00;100421.00;5175555;27;20153;-51
2022/08/10 00:37:00;;;;;;;4.15;3.75;;;;;;;17.06;100.00;100411.50;5175211;27;20046;-48
2022/08/10 00:39:28;;;;;;;7.72;2.72;;;;;;;17.10;100.00;100412.38;5175333;27;20050;-52
2022/08/10 00:41:54;;;;;;;2.83;2.08;;;;;;;16.95;100.00;100416.91;5175006;27;20049;-51
2022/08/10 00:44:21;;;;;;;4.35;2.67;;;;;;;17.08;100.00;100415.50;5175124;27;20057;-50
2022/08/10 00:46:47;;;;;;;6.07;3.53;;;;;;;16.93;100.00;100420.09;5174941;27;20057;-51
2022/08/10 00:49:13;;;;;;;4.93;2.55;;;;;;;17.01;100.00;100414.63;5174932;27;20539;-49
2022/08/10 00:51:40;;;;;;;5.72;2.47;;;;;;;17.04;100.00;100414.66;5175046;27;20110;-52
2022/08/10 00:54:07;;;;;;;4.82;3.45;;;;;;;16.92;100.00;100410.16;5174872;27;20137;-50
2022/08/10 00:56:34;;;;;;;3.55;2.60;;;;;;;16.92;100.00;100420.44;5175000;27;20061;-51
2022/08/10 00:59:00;;;;;;;6.07;2.53;;;;;;;17.04;100.00;100420.19;5174802;27;20168;-49
2022/08/10 01:01:27;;;;;;;6.60;2.60;;;;;;;17.20;100.00;100419.19;5175162;27;20077;-52
2022/08/10 01:03:53;;;;;;;4.07;2.80;;;;;;;16.83;100.00;100417.19;5174672;27;20081;-53
2022/08/10 01:06:29;;;;;;;3.13;2.80;;;;;;;17.01;100.00;100420.16;5174850;27;20043;-51
2022/08/10 01:09:05;;;;;;;2.92;2.63;;;;;;;17.07;100.00;100421.44;5174479;27;20046;-52
2022/08/10 01:11:38;;;;;;;3.67;3.05;;;;;;;17.05;100.00;100421.00;5174900;27;20496;-51
2022/08/10 01:14:08;;;;;;;4.55;2.10;;;;;;;17.06;100.00;100422.59;5174704;27;20184;-49
2022/08/10 01:16:41;;;;;;;6.65;3.47;;;;;;;17.01;100.00;100411.84;5174647;27;20050;-49
2022/08/10 01:19:19;;;;;;;3.80;2.65;;;;;;;17.08;100.00;100417.47;5174567;27;20054;-52
2022/08/10 01:22:07;;;;;;;3.47;2.60;;;;;;;16.93;100.00;100417.31;5174243;27;20049;-49
2022/08/10 01:25:00;;;;;;;3.42;2.85;;;;;;;17.06;100.00;100414.28;5173425;27;20069;-49
2022/08/10 01:27:36;;;;;;;4.20;2.60;;;;;;;16.87;100.00;100415.25;5174423;27;20085;-49
2022/08/10 01:30:06;;;;;;;3.22;2.38;;;;;;;16.73;100.00;100413.06;5174366;27;20054;-51
2022/08/10 01:32:45;;;;;;;5.72;2.40;;;;;;;16.85;100.00;100414.81;5174439;27;20046;-48
2022/08/10 01:35:17;;;;;;;3.53;2.67;;;;;;;16.71;100.00;100409.88;5174227;27;20057;-50
2022/08/10 01:37:50;;;;;;;4.03;3.60;;;;;;;16.68;100.00;100414.19;5174389;27;20075;-52
2022/08/10 01:40:22;;;;;;;3.15;2.50;;;;;;;16.71;100.00;100415.41;5174479;27;20050;-49
2022/08/10 01:42:50;;;;;;;3.22;2.78;;;;;;;16.75;100.00;100416.28;5174053;27;20050;-48
2022/08/10 01:45:20;;;;;;;2.92;2.40;;;;;;;16.71;100.00;100410.66;5174400;27;20072;-50
2022/08/10 01:50:39;;;;;;;4.45;2.45;;;;;;;16.79;100.00;100411.56;5174447;27;20453;-49
2022/08/10 01:53:19;;;;;;;4.47;2.75;;;;;;;16.73;100.00;100415.84;5173807;27;20053;-49
2022/08/10 01:55:48;;;;;;;4.57;2.70;;;;;;;16.65;100.00;100419.69;5174442;27;20046;-47
2022/08/10 01:58:18;;;;;;;4.35;2.50;;;;;;;16.67;100.00;100422.88;5173722;27;20054;-48
2022/08/10 02:00:48;;;;;;;5.75;2.83;;;;;;;16.80;100.00;100415.16;5173912;27;20053;-50
2022/08/10 02:03:17;;;;;;;5.65;3.80;;;;;;;16.59;100.00;100415.63;5173913;27;20046;-50
2022/08/10 02:05:47;;;;;;;4.35;2.30;;;;;;;16.45;100.00;100414.28;5173794;27;20425;-51
2022/08/10 02:08:16;;;;;;;3.08;2.78;;;;;;;16.48;100.00;100418.28;5174046;27;20378;-49
2022/08/10 02:10:46;;;;;;;5.05;2.80;;;;;;;16.45;100.00;100417.03;5173638;27;20046;-50
2022/08/10 02:13:15;;;;;;;4.25;2.60;;;;;;;16.53;100.00;100408.84;5173531;27;20061;-51
2022/08/10 02:15:44;;;;;;;5.20;3.30;;;;;;;16.68;100.00;100418.94;5173536;27;20066;-49
2022/08/10 02:18:12;;;;;;;8.38;2.78;;;;;;;16.73;100.00;100421.38;5174007;27;20057;-48
2022/08/10 02:20:43;;;;;;;5.35;3.03;;;;;;;16.64;100.00;100427.19;5173895;27;20046;-48
2022/08/10 02:23:15;;;;;;;6.53;3.90;;;;;;;16.58;100.00;100419.59;5173584;27;20046;-48
2022/08/10 02:25:44;;;;;;;7.32;2.50;;;;;;;16.63;100.00;100419.28;5173509;27;20557;-49
2022/08/10 02:28:15;;;;;;;3.78;2.67;;;;;;;16.57;100.00;100429.88;5173702;27;20050;-48
2022/08/10 02:30:43;;;;;;;3.97;2.88;;;;;;;16.60;100.00;100422.78;5173533;27;20054;-49
2022/08/10 02:33:10;;;;;;;3.40;2.72;;;;;;;16.54;100.00;100418.75;5173226;27;20050;-48
2022/08/10 02:35:38;;;;;;;5.35;2.95;;;;;;;16.60;100.00;100431.09;5173262;27;20057;-50
2022/08/10 02:38:07;;;;;;;7.43;2.70;;;;;;;16.65;100.00;100428.78;5173312;27;20050;-47
2022/08/10 02:40:41;;;;;;;6.60;3.80;;;;;;;16.59;100.00;100432.25;5173253;27;20046;-48
2022/08/10 02:43:18;;;;;;;4.90;3.10;;;;;;;16.54;100.00;100427.84;5173136;27;20078;-47
2022/08/10 02:45:48;;;;;;;9.35;3.00;;;;;;;16.57;100.00;100427.09;5173369;27;20046;-50
2022/08/10 02:48:19;;;;;;;5.28;2.88;;;;;;;16.59;100.00;100430.28;5172977;27;20046;-49
2022/08/10 02:50:53;;;;;;;3.40;2.47;;;;;;;16.41;100.00;100427.28;5173044;27;20054;-49
2022/08/10 02:53:28;;;;;;;4.43;2.65;;;;;;;16.46;100.00;100417.84;5173276;27;20178;-49
2022/08/10 02:55:59;;;;;;;3.55;2.50;;;;;;;16.24;100.00;100417.53;5172810;27;20050;-52
2022/08/10 02:58:30;;;;;;;7.45;3.33;;;;;;;16.29;100.00;100401.78;5173222;27;20056;-48
2022/08/10 03:00:59;;;;;;;4.30;2.50;;;;;;;16.42;100.00;100415.03;5172878;27;20081;-49
2022/08/10 03:03:29;;;;;;;12.45;2.90;;;;;;;16.14;100.00;100406.31;5172929;27;20152;-49
2022/08/10 03:06:03;;;;;;;8.27;2.75;;;;;;;16.38;100.00;100416.16;5172834;27;20042;-49
2022/08/10 03:08:33;;;;;;;6.32;2.80;;;;;;;16.45;100.00;100419.81;5172554;27;20141;-53
2022/08/10 03:11:03;;;;;;;5.05;2.75;;;;;;;16.53;100.00;100425.44;5172959;27;20050;-50
2022/08/10 03:13:31;;;;;;;4.10;2.97;;;;;;;16.52;100.00;100429.38;5172810;27;20054;-51
2022/08/10 03:16:00;;;;;;;3.50;2.60;;;;;;;16.81;100.00;100433.38;5172867;27;20145;-49
2022/08/10 03:18:28;;;;;;;5.72;3.63;;;;;;;17.29;100.00;100442.63;5172518;27;20050;-48
2022/08/10 03:20:56;;;;;;;7.05;2.95;;;;;;;17.44;100.00;100443.59;5172883;27;20046;-51
2022/08/10 03:23:26;;;;;;;3.45;2.63;;;;;;;18.22;100.00;100414.97;5172515;27;20049;-49
2022/08/10 03:25:56;;;;;;;5.13;3.90;;;;;;;18.84;100.00;100292.69;5172672;27;20091;-50
2022/08/10 03:28:26;;;;;;;6.32;3.40;;;;;;;19.28;100.00;100111.63;5172644;27;20043;-49
2022/08/10 03:30:53;;;;;;;3.20;2.50;;;;;;;19.69;100.00;99933.13;5172378;27;20085;-48
2022/08/10 03:33:21;;;;;;;4.70;2.53;;;;;;;20.03;100.00;99748.78;5172403;27;20050;-50
2022/08/10 03:35:47;;;;;;;5.43;3.33;;;;;;;20.27;100.00;99618.06;5172194;27;20050;-50
2022/08/10 03:38:14;;;;;;;2.83;2.47;;;;;;;20.31;100.00;99483.13;5172523;27;20436;-51
2022/08/10 03:40:45;;;;;;;4.03;2.30;;;;;;;20.63;100.00;99470.69;5172202;27;20050;-50
2022/08/10 03:43:12;;;;;;;2.55;2.33;;;;;;;20.85;100.00;99373.53;5172549;27;20052;-51
2022/08/10 03:45:40;;;;;;;2.63;2.22;;;;;;;20.64;100.00;99297.56;5172108;27;20096;-49
2022/08/10 03:48:08;;;;;;;3.05;2.17;;;;;;;19.89;100.00;99498.50;5171753;27;20050;-49
2022/08/10 03:50:36;;;;;;;4.78;2.53;;;;;;;19.52;100.00;99550.22;5172366;27;20046;-49
2022/08/10 03:53:03;;;;;;;6.85;2.50;;;;;;;19.34;100.00;99717.25;5172389;27;20136;-50
2022/08/10 03:55:30;;;;;;;3.05;2.13;;;;;;;19.09;100.00;99809.16;5172198;27;20046;-49
2022/08/10 03:57:57;;;;;;;4.55;2.78;;;;;;;18.60;100.00;100035.13;5171942;27;20098;-49
2022/08/10 04:00:25;;;;;;;4.65;2.50;;;;;;;18.38;100.00;100059.31;5172499;27;20042;-52
2022/08/10 04:02:52;;;;;;;3.75;2.50;;;;;;;18.07;100.00;100172.66;5172217;27;20132;-51
2022/08/10 04:05:18;;;;;;;2.72;2.45;;;;;;;18.23;100.00;100158.44;5171916;27;20054;-48
2022/08/10 04:07:46;;;;;;;2.97;2.38;;;;;;;18.26;100.00;100197.31;5171923;27;20050;-48
2022/08/10 04:10:13;;;;;;;3.63;2.40;;;;;;;18.08;100.00;100226.97;5172273;27;20062;-48
2022/08/10 04:12:39;;;;;;;7.22;2.72;;;;;;;17.80;100.00;100296.97;5171807;27;20049;-49
2022/08/10 04:15:07;;;;;;;2.65;2.17;;;;;;;17.98;100.00;100314.50;5172140;27;20201;-48
2022/08/10 04:17:34;;;;;;;4.03;3.20;;;;;;;17.94;100.00;100304.59;5171833;27;20593;-49
2022/08/10 04:20:01;;;;;;;3.25;2.20;;;;;;;18.06;100.00;100316.16;5172043;27;20544;-50
2022/08/10 04:22:29;;;;;;;3.70;2.90;;;;;;;17.93;100.00;100314.91;5171727;27;20048;-49
2022/08/10 04:25:01;;;;;;;4.15;2.38;;;;;;;18.12;100.00;100319.34;5171682;27;20085;-50
2022/08/10 04:27:27;;;;;;;2.95;2.53;;;;;;;18.21;100.00;100319.00;5171650;27;20061;-51
2022/08/10 04:29:54;;;;;;;5.50;3.53;;;;;;;18.09;100.00;100309.84;5171698;27;20042;-51
2022/08/10 04:32:23;;;;;;;4.80;2.33;;;;;;;18.16;100.00;100313.81;5171707;27;20058;-50
2022/08/10 04:34:51;;;;;;;6.72;3.15;;;;;;;18.38;100.00;100284.97;5171635;27;20416;-51
2022/08/10 04:37:20;;;;;;;4.18;3.03;;;;;;;18.24;100.00;100282.94;5172044;27;20055;-51
2022/08/10 04:39:47;;;;;;;4.38;2.10;;;;;;;18.43;100.00;100256.84;5171743;27;20129;-50
2022/08/10 04:42:14;;;;;;;2.13;1.98;;;;;;;18.40;100.00;100256.84;5172225;27;20043;-50
2022/08/10 04:44:41;;;;;;;3.00;2.45;;;;;;;18.49;100.00;100262.81;5171840;27;20161;-48
2022/08/10 04:47:08;;;;;;;3.97;3.25;;;;;;;18.57;100.00;100228.34;5171651;27;20057;-48
2022/08/10 04:49:35;;;;;;;2.53;2.03;;;;;;;18.67;100.00;100241.44;5171882;27;20147;-50
2022/08/10 04:52:01;;;;;;;3.45;3.13;;;;;;;18.78;100.00;100189.50;5171807;27;20652;-49
2022/08/10 04:54:27;;;;;;;4.45;3.20;;;;;;;18.96;100.00;100136.72;5171923;27;20808;-48
2022/08/10 04:56:53;;;;;;;5.40;3.00;;;;;;;18.64;100.00;100147.81;5171305;27;20050;-51
2022/08/10 04:59:20;;;;;;;5.10;2.30;;;;;;;18.99;100.00;100135.94;5172948;27;20061;-51
2022/08/10 05:01:46;;;;;;;4.15;2.88;;;;;;;19.31;100.00;100059.22;5175079;27;20424;-49
2022/08/10 05:04:13;;;;;;;4.53;2.97;;;;;;;19.57;100.00;100028.13;5174853;27;20478;-51
2022/08/10 05:06:40;;;;;;;6.53;2.70;;;;;;;19.88;100.00;99950.47;5174810;27;20078;-50
2022/08/10 05:09:06;;;;;;;3.42;1.95;;;;;;;20.79;100.00;99727.13;5175190;27;20054;-49
2022/08/10 05:11:32;;;;;;;2.05;1.75;;;;;;;21.05;100.00;99521.25;5174613;27;20050;-52
2022/08/10 05:13:59;;;;;;;5.55;1.95;;;;;;;20.98;100.00;99374.47;5175026;27;20149;-51
2022/08/10 05:16:25;;;;;;;2.45;1.77;;;;;;;21.53;100.00;99322.69;5174631;27;20056;-51
2022/08/10 05:18:51;;;;;;;5.90;2.22;;;;;;;22.84;100.00;99140.69;5174395;27;20056;-51
2022/08/10 05:21:17;;;;;;;4.35;2.22;;;;;;;23.71;100.00;98949.06;5174645;27;20046;-51
2022/08/10 05:23:44;;;;;;;3.63;2.03;;;;;;;23.11;100.00;98932.53;5174336;27;20081;-51
2022/08/10 05:26:11;;;;;;;2.45;2.20;;;;;;;24.16;100.00;98923.25;5174490;27;20632;-52
2022/08/10 05:28:37;;;;;;;4.13;2.20;;;;;;;23.83;100.00;98925.03;5174381;27;20137;-51
2022/08/10 05:31:03;;;;;;;2.33;2.13;;;;;;;23.70;100.00;98923.09;5174300;27;20042;-52
2022/08/10 05:33:29;;;;;;;2.58;1.80;;;;;;;23.13;100.00;98922.47;5174058;27;20497;-52
2022/08/10 05:35:57;;;;;;;4.05;1.83;;;;;;;23.47;100.00;98924.38;5174489;27;20182;-49
2022/08/10 05:38:25;;;;;;;3.10;1.90;;;;;;;23.46;100.00;98925.63;5174090;27;20054;-50
2022/08/10 05:40:53;;;;;;;2.47;1.70;;;;;;;24.91;100.00;98933.31;5174379;27;20524;-50
2022/08/10 05:43:20;;;;;;;2.17;1.98;;;;;;;25.44;100.00;98991.09;5174012;27;20042;-52
2022/08/10 05:45:48;;;;;;;3.08;1.80;;;;;;;24.86;100.00;98984.41;5173864;27;20054;-50
2022/08/10 05:48:14;;;;;;;5.10;1.75;;;;;;;24.77;100.00;98968.34;5174065;27;20521;-50
2022/08/10 05:50:41;;;;;;;4.93;2.17;;;;;;;24.40;100.00;98945.91;5173785;27;20043;-50
2022/08/10 05:53:07;;;;;;;6.15;2.00;;;;;;;25.15;100.00;98961.50;5174093;27;20134;-50
2022/08/10 05:55:34;;;;;;;2.13;1.60;;;;;;;24.96;100.00;98945.91;5173654;27;20137;-51
2022/08/10 05:58:01;;;;;;;4.47;2.13;;;;;;;25.57;100.00;98980.47;5173985;27;20054;-53
2022/08/10 06:00:29;;;;;;;2.92;1.73;;;;;;;26.06;100.00;99046.81;5173830;27;20047;-50
2022/08/10 06:02:59;;;;;;;3.10;1.70;;;;;;;25.61;100.00;99031.59;5174056;27;20042;-52
2022/08/10 06:05:29;;;;;;;3.85;1.63;;;;;;;26.25;100.00;99044.69;5173570;27;20137;-53
2022/08/10 06:07:59;;;;;;;1.75;1.50;;;;;;;26.87;100.00;99120.00;5174018;27;20422;-52
2022/08/10 06:10:28;;;;;;;4.05;1.58;;;;;;;27.02;100.00;99192.44;5173355;27;20487;-52
2022/08/10 06:15:39;;;;;;;2.22;1.30;;;;;;;28.01;100.00;99230.91;5138883;27;20461;-51
2022/08/10 06:18:05;;;;;;;3.72;1.05;;;;;;;28.10;100.00;99290.78;5173460;27;20054;-52
2022/08/10 06:20:32;;;;;;;1.55;1.25;;;;;;;27.78;100.00;99274.75;5173176;27;20510;-53
2022/08/10 06:23:00;;;;;;;3.05;1.33;;;;;;;26.96;100.00;99276.72;5172823;27;20053;-52
2022/08/10 06:25:28;;;;;;;2.92;1.40;;;;;;;27.33;100.00;99257.66;5173603;27;20097;-51
2022/08/10 06:27:55;;;;;;;2.40;1.17;;;;;;;27.42;100.00;99270.88;5173371;27;20496;-52
2022/08/10 06:30:23;;;;;;;1.30;1.20;;;;;;;27.00;100.00;99240.75;5173876;27;20390;-50
2022/08/10 06:32:54;;;;;;;3.17;1.15;;;;;;;27.11;100.00;99322.59;5173377;27;20050;-50
2022/08/10 06:35:21;;;;;;;1.95;1.00;;;;;;;27.71;100.00;99337.81;5173279;27;20057;-51
2022/08/10 06:37:50;;;;;;;2.38;1.05;;;;;;;27.97;100.00;99321.25;5173415;27;20050;-52
2022/08/10 06:40:16;;;;;;;4.05;1.08;;;;;;;28.49;100.00;99332.28;5172953;27;20052;-52
2022/08/10 06:42:46;;;;;;;6.93;1.27;;;;;;;29.05;100.00;99351.03;5173202;27;20538;-52
2022/08/10 06:45:16;;;;;;;6.55;1.60;;;;;;;28.03;100.00;99327.03;5172823;27;20050;-52
2022/08/10 06:47:46;;;;;;;13.45;1.92;;;;;;;29.38;100.00;99371.84;5172987;27;20527;-50
2022/08/10 06:50:17;;;;;;;1.45;1.30;;;;;;;28.86;100.00;99327.09;5173133;27;20067;-53
2022/08/10 06:52:46;;;;;;;9.40;1.20;;;;;;;27.41;100.00;99303.88;5172961;27;20046;-52
2022/08/10 06:55:14;;;;;;;2.35;1.23;;;;;;;26.50;100.00;99182.03;5173489;27;20054;-49
2022/08/10 06:57:42;;;;;;;2.30;1.10;;;;;;;26.97;100.00;99250.13;5172827;27;20533;-51
2022/08/10 07:00:11;;;;;;;2.35;0.93;;;;;;;27.40;100.00;99243.22;5173289;27;20102;-49
2022/08/10 07:02:44;;;;;;;9.05;1.38;;;;;;;26.87;100.00;99262.69;5172899;27;20154;-52
2022/08/10 07:05:16;;;;;;;1.85;1.20;;;;;;;26.47;100.00;99242.00;5172863;27;20052;-50
2022/08/10 07:07:44;;;;;;;2.30;0.98;;;;;;;26.83;100.00;99265.66;5172477;27;20054;-49
2022/08/10 07:10:15;;;;;;;6.10;1.20;;;;;;;27.62;100.00;99304.88;5172894;27;20098;-56
2022/08/10 07:12:43;;;;;;;3.28;1.58;;;;;;;26.66;100.00;99250.41;5172562;27;20060;-56
2022/08/10 07:15:12;;;;;;;4.65;1.70;;;;;;;25.96;100.00;99276.38;5173056;27;20068;-55
2022/08/10 07:17:40;;;;;;;4.10;1.13;;;;;;;25.66;100.00;99179.75;5172938;27;20046;-54
2022/08/10 07:20:08;;;;;;;2.22;1.10;;;;;;;26.29;100.00;99234.38;5172400;27;20046;-51
2022/08/10 07:22:37;;;;;;;2.38;1.13;;;;;;;26.17;100.00;99263.41;5171213;27;20054;-53
2022/08/10 07:25:06;;;;;;;2.17;1.27;;;;;;;25.69;100.00;99214.53;5172426;27;20048;-55
2022/08/10 07:27:33;;;;;;;2.75;1.13;;;;;;;26.62;100.00;99253.34;5172284;27;20058;-55
2022/08/10 07:30:01;;;;;;;1.88;0.90;;;;;;;26.67;100.00;99347.56;5172417;27;20063;-54
2022/08/10 07:32:28;;;;;;;4.75;1.20;;;;;;;26.31;100.00;99244.34;5172441;27;20485;-52
2022/08/10 07:34:56;;;;;;;3.08;1.33;;;;;;;27.64;100.00;99322.06;5172306;27;20046;-56
2022/08/10 07:37:24;;;;;;;2.20;1.10;;;;;;;28.68;100.00;99367.53;5172374;27;20093;-56
2022/08/10 07:39:53;;;;;;;1.75;0.90;;;;;;;27.97;100.00;99383.25;5172246;27;20046;-52
2022/08/10 07:42:21;;;;;;;4.38;1.30;;;;;;;28.83;100.00;99381.66;5172159;27;20046;-50
2022/08/10 07:44:49;;;;;;;2.60;1.10;;;;;;;29.28;100.00;99451.00;5172245;27;20051;-50
2022/08/10 07:47:21;;;;;;;1.83;0.82;;;;;;;28.64;100.00;99433.88;5172042;27;20042;-51
2022/08/10 07:49:51;;;;;;;4.18;1.00;;;;;;;27.74;100.00;99376.31;5172458;27;20042;-51
2022/08/10 07:52:17;;;;;;;1.83;0.95;;;;;;;26.94;100.00;99335.47;5172071;27;20057;-54
2022/08/10 07:54:49;;;;;;;1.60;1.30;;;;;;;25.83;100.00;99252.50;5172395;27;20052;-51
2022/08/10 07:57:22;;;;;;;1.48;1.25;;;;;;;26.15;100.00;99253.88;5171949;27;20191;-52
2022/08/10 07:59:54;;;;;;;3.70;1.50;;;;;;;25.90;100.00;99241.72;5171867;27;20118;-53
2022/08/10 08:02:26;;;;;;;3.30;1.20;;;;;;;25.79;100.00;99269.44;5172003;27;20137;-53
2022/08/10 08:04:54;;;;;;;3.88;1.40;;;;;;;25.73;100.00;99249.66;5172244;27;20676;-53
2022/08/10 08:07:21;;;;;;;2.53;1.52;;;;;;;25.15;100.00;99159.91;5171899;27;20595;-53
2022/08/10 08:09:50;;;;;;;3.72;1.60;;;;;;;24.98;100.00;99164.97;5171497;27;20086;-53
2022/08/10 08:12:17;;;;;;;1.77;1.45;;;;;;;24.89;100.00;99169.31;5171693;27;20064;-54
2022/08/10 08:14:44;;;;;;;2.83;1.40;;;;;;;24.18;100.00;99118.84;5171431;27;20054;-53
2022/08/10 08:17:15;;;;;;;2.40;1.50;;;;;;;23.49;100.00;99098.16;5171748;27;20050;-55
2022/08/10 08:19:43;;;;;;;2.20;1.30;;;;;;;23.46;100.00;99019.97;5171652;27;20050;-52
2022/08/10 08:22:10;;;;;;;2.53;1.33;;;;;;;23.57;100.00;99050.34;5171852;27;20049;-54
2022/08/10 08:24:38;;;;;;;2.45;1.40;;;;;;;23.70;100.00;99023.09;5171567;27;20133;-53
2022/08/10 08:27:06;;;;;;;1.25;1.10;;;;;;;23.76;100.00;99021.25;5171810;27;20091;-52
2022/08/10 08:29:36;;;;;;;2.45;1.42;;;;;;;24.18;100.00;99046.78;5171500;27;20062;-51
2022/08/10 08:32:04;;;;;;;1.27;1.20;;;;;;;23.98;100.00;99194.78;5171317;27;20141;-53
2022/08/10 08:34:31;;;;;;;1.90;1.10;;;;;;;24.67;100.00;99190.25;5174883;27;20113;-53
2022/08/10 08:36:59;;;;;;;2.95;1.40;;;;;;;24.37;100.00;99179.34;5175113;27;20057;-54
2022/08/10 08:39:26;;;;;;;2.00;1.35;;;;;;;24.08;100.00;99168.41;5175208;27;20050;-52
2022/08/10 08:42:17;;;;;;;1.30;1.20;;;;;;;23.23;100.00;99147.03;5174892;27;20089;-52
2022/08/10 08:44:59;;;;;;;2.83;1.40;;;;;;;23.95;100.00;99160.09;5175070;27;20129;-50
2022/08/10 08:47:56;;;;;;;3.22;1.27;;;;;;;24.49;100.00;99148.91;5174836;27;20046;-53
2022/08/10 08:50:36;;;;;;;9.32;1.40;;;;;;;23.89;100.00;99145.13;5169682;27;20050;-54
2022/08/10 08:53:25;;;;;;;4.18;1.20;;;;;;;23.96;100.00;99172.09;5174959;27;20052;-54
2022/08/10 08:55:56;;;;;;;2.03;1.38;;;;;;;24.17;100.00;99176.09;5174728;27;20433;-56
2022/08/10 08:58:35;;;;;;;3.75;1.27;;;;;;;26.01;100.00;99258.88;5174823;27;20050;-53
2022/08/10 09:01:18;;;;;;;9.23;1.55;;;;;;;26.40;100.00;99354.72;5174586;27;20076;-54
2022/08/10 09:04:07;;;;;;;3.80;1.48;;;;;;;27.06;100.00;99393.59;5174675;27;20046;-55
2022/08/10 09:07:02;;;;;;;1.60;1.20;;;;;;;27.25;100.00;99410.44;5173875;27;20042;-54
2022/08/10 09:09:55;;;;;;;1.55;1.10;;;;;;;27.65;100.00;99441.13;5174106;27;20050;-54
2022/08/10 09:12:40;;;;;;;1.60;0.90;;;;;;;27.36;100.00;99447.34;5174321;27;20054;-52
2022/08/10 09:15:15;;;;;;;1.88;1.10;;;;;;;28.87;100.00;99469.72;5174580;27;20054;-52
2022/08/10 09:17:52;;;;;;;2.75;0.93;;;;;;;28.36;100.00;99482.00;5174300;27;20054;-53
2022/08/10 09:20:33;;;;;;;3.90;1.30;;;;;;;28.45;100.00;99465.00;5174587;27;20050;-50
2022/08/10 09:23:07;;;;;;;4.38;1.23;;;;;;;28.02;100.00;99438.16;5174329;27;20052;-55
2022/08/10 09:25:35;;;;;;;6.18;1.10;;;;;;;27.49;100.00;99444.31;5174549;27;20057;-54
2022/08/10 09:28:04;;;;;;;3.40;1.10;;;;;;;26.85;100.00;99386.13;5174206;27;20070;-54
2022/08/10 09:30:40;;;;;;;1.65;1.00;;;;;;;26.14;100.00;99373.13;5174411;27;20053;-53
2022/08/10 09:33:11;;;;;;;4.20;1.10;;;;;;;24.82;100.00;99340.63;5174298;27;20052;-54
2022/08/10 09:35:50;;;;;;;1.33;1.00;;;;;;;25.16;100.00;99291.28;5174179;27;20046;-53
2022/08/10 09:38:27;;;;;;;1.25;0.90;;;;;;;24.64;100.00;99273.25;5174213;27;20054;-50
2022/08/10 09:41:03;;;;;;;1.42;0.85;;;;;;;24.92;100.00;99316.22;5174106;27;20057;-52
2022/08/10 09:43:49;;;;;;;1.33;0.90;;;;;;;24.81;100.00;99355.09;5173974;27;20057;-51
2022/08/10 09:46:32;;;;;;;1.60;0.77;;;;;;;24.98;100.00;99350.84;5173395;27;20135;-53
2022/08/10 09:49:09;;;;;;;1.30;1.00;;;;;;;25.20;100.00;99390.13;5173766;27;20042;-51
2022/08/10 09:51:43;;;;;;;1.63;1.00;;;;;;;25.46;100.00;99426.41;5174214;27;20137;-52
2022/08/10 09:54:20;;;;;;;2.30;1.02;;;;;;;26.68;100.00;99419.41;5174184;27;20053;-51
2022/08/10 09:56:56;;;;;;;3.30;1.02;;;;;;;27.06;100.00;99437.81;5174020;27;20046;-54
2022/08/10 09:59:29;;;;;;;5.50;0.90;;;;;;;26.27;100.00;99474.94;5173706;27;20110;-55
2022/08/10 10:02:09;;;;;;;1.25;1.00;;;;;;;26.81;100.00;99476.28;5173821;27;20046;-52
2022/08/10 10:04:47;;;;;;;2.20;0.80;;;;;;;26.45;100.00;99519.94;5173885;27;20432;-51
2022/08/10 10:07:20;;;;;;;3.38;0.90;;;;;;;26.41;100.00;99505.25;5173732;27;20054;-54
2022/08/10 10:09:54;;;;;;;2.47;0.75;;;;;;;26.09;100.00;99461.66;5173543;27;20050;-55
2022/08/10 10:12:26;;;;;;;2.10;0.80;;;;;;;27.69;100.00;99481.97;5173743;27;20046;-55
2022/08/10 10:17:59;;;;;;;3.28;1.10;;;;;;;27.21;100.00;99475.34;5173829;27;20048;-55
2022/08/10 10:20:34;;;;;;;2.55;0.90;;;;;;;27.88;100.00;99460.16;5173553;27;20050;-53
2022/08/10 10:23:13;;;;;;;2.17;1.00;;;;;;;25.90;100.00;99468.44;5173585;27;20050;-54
2022/08/10 10:25:46;;;;;;;5.22;1.00;;;;;;;26.15;100.00;99431.66;5173223;27;20046;-53
2022/08/10 10:28:19;;;;;;;;;;;;;;;25.76;100.00;99393.94;5173693;27;20046;-51
2022/08/10 10:30:57;;;;;;;0.68;0.68;;;;;;;25.70;100.00;99374.13;5173285;27;19974;-51
2022/08/10 10:33:35;;;;;;;2.63;0.88;;;;;;;25.78;100.00;99352.91;5173220;27;20140;-53
2022/08/10 10:36:03;;;;;;;2.90;1.00;;;;;;;25.46;100.00;99343.00;5173079;27;20046;-54
2022/08/10 10:38:34;;;;;;;5.72;1.13;;;;;;;25.09;100.00;99303.53;5173455;27;20053;-55
2022/08/10 10:41:10;;;;;;;5.45;1.30;;;;;;;24.67;100.00;99257.53;5173206;27;20090;-53
2022/08/10 10:43:50;;;;;;;11.43;1.40;;;;;;;24.92;100.00;99223.69;5173313;27;20129;-51
2022/08/10 10:46:32;;;;;;;2.75;1.00;;;;;;;24.91;100.00;99210.91;5173326;27;20073;-52
2022/08/10 10:49:22;;;;;;;4.38;1.02;;;;;;;24.56;100.00;99211.06;5172896;27;20053;-52
2022/08/10 10:51:59;;;;;;;2.30;1.00;;;;;;;24.14;100.00;99151.81;5172968;27;20043;-53
2022/08/10 10:54:36;;;;;;;6.30;1.48;;;;;;;23.88;100.00;99219.13;5172909;27;20488;-50
2022/08/10 10:57:13;;;;;;;4.13;1.20;;;;;;;23.20;100.00;99276.59;5172817;27;20057;-53
2022/08/10 10:59:49;;;;;;;3.15;1.20;;;;;;;23.69;100.00;99195.84;5173077;27;20050;-55
2022/08/10 11:02:27;;;;;;;6.18;1.30;;;;;;;23.61;100.00;99186.06;5172867;27;20042;-56
2022/08/10 11:05:04;;;;;;;5.47;1.13;;;;;;;23.94;100.00;99211.72;5172588;27;20054;-58
2022/08/10 11:07:47;;;;;;;3.92;0.98;;;;;;;23.64;100.00;99178.81;5172462;27;20505;-56
2022/08/10 11:10:20;;;;;;;13.60;1.27;;;;;;;23.69;100.00;99165.03;5172736;27;20050;-52
2022/08/10 11:12:55;;;;;;;3.67;0.88;;;;;;;23.72;100.00;99168.94;5172656;27;20421;-55
2022/08/10 11:15:26;;;;;;;7.93;1.05;;;;;;;23.87;100.00;99211.97;5172913;27;20064;-56
2022/08/10 11:17:58;;;;;;;2.42;1.10;;;;;;;23.95;100.00;99159.31;5172658;27;20110;-52
2022/08/10 11:20:31;;;;;;;2.60;1.00;;;;;;;24.16;100.00;99185.75;5172681;27;20136;-54
2022/08/10 11:23:18;;;;;;;10.93;1.10;;;;;;;24.70;100.00;99220.94;5173142;27;20455;-52
2022/08/10 11:25:50;;;;;;;1.75;1.00;;;;;;;25.26;100.00;99228.34;5172543;27;20468;-52
2022/08/10 11:28:21;;;;;;;2.10;1.00;;;;;;;25.73;100.00;99314.22;5172366;27;20141;-53
2022/08/10 11:31:01;;;;;;;7.78;1.77;;;;;;;24.97;100.00;99326.84;5172306;27;20046;-53
2022/08/10 11:33:36;;;;;;;6.20;1.02;;;;;;;24.89;100.00;99451.72;5172633;27;20406;-54
2022/08/10 11:36:08;;;;;;;2.10;0.75;;;;;;;24.79;100.00;99424.84;5172137;27;20066;-56
2022/08/10 11:38:45;;;;;;;7.10;1.10;;;;;;;24.32;100.00;99437.66;5172274;27;20054;-56
2022/08/10 11:41:24;;;;;;;5.88;1.00;;;;;;;24.23;100.00;99425.63;5172749;27;20098;-57
2022/08/10 11:44:02;;;;;;;2.10;1.15;;;;;;;23.83;100.00;99358.94;5172400;27;20497;-55
2022/08/10 11:46:32;;;;;;;5.05;1.10;;;;;;;24.54;100.00;99347.28;5172104;27;20086;-58